sensor_id;sensor_type;location;lat;lon;timestamp;P1;durP1;ratioP1;P2;durP2;ratioP2
41043;SDS011;51680;49.806;18.774;2022-08-19T00:02:30;12.93;;;7.40;;
41043;SDS011;51680;49.806;18.774;2022-08-19T00:05:34;10.70;;;7.40;;
41043;SDS011;51680;49.806;18.774;2022-08-19T00:08:36;11.10;;;7.28;;
41043;SDS011;51680;49.806;18.774;2022-08-19T00:11:38;11.93;;;7.88;;
41043;SDS011;51680;49.806;18.774;2022-08-19T00:14:40;13.63;;;8.43;;
41043;SDS011;51680;49.806;18.774;2022-08-19T00:17:43;11.55;;;7.68;;
41043;SDS011;51680;49.806;18.774;2022-08-19T00:20:47;12.50;;;8.30;;
41043;SDS011;51680;49.806;18.774;2022-08-19T00:23:49;11.82;;;8.85;;
41043;SDS011;51680;49.806;18.774;2022-08-19T00:26:51;16.67;;;8.77;;
41043;SDS011;51680;49.806;18.774;2022-08-19T00:29:53;19.55;;;9.00;;
41043;SDS011;51680;49.806;18.774;2022-08-19T00:32:54;16.75;;;8.93;;
41043;SDS011;51680;49.806;18.774;2022-08-19T00:35:58;14.98;;;8.48;;
41043;SDS011;51680;49.806;18.774;2022-08-19T00:39:00;11.65;;;7.95;;
41043;SDS011;51680;49.806;18.774;2022-08-19T00:42:02;11.05;;;7.85;;
41043;SDS011;51680;49.806;18.774;2022-08-19T00:45:05;9.02;;;7.50;;
41043;SDS011;51680;49.806;18.774;2022-08-19T00:48:12;11.60;;;7.53;;
41043;SDS011;51680;49.806;18.774;2022-08-19T00:51:15;9.93;;;7.07;;
41043;SDS011;51680;49.806;18.774;2022-08-19T00:54:17;8.63;;;7.03;;
41043;SDS011;51680;49.806;18.774;2022-08-19T00:57:22;9.52;;;7.00;;
41043;SDS011;51680;49.806;18.774;2022-08-19T01:00:29;9.85;;;6.95;;
41043;SDS011;51680;49.806;18.774;2022-08-19T01:06:34;11.30;;;7.65;;
41043;SDS011;51680;49.806;18.774;2022-08-19T01:09:37;14.85;;;7.07;;
41043;SDS011;51680;49.806;18.774;2022-08-19T01:12:39;13.32;;;7.20;;
41043;SDS011;51680;49.806;18.774;2022-08-19T01:15:42;11.43;;;6.88;;
41043;SDS011;51680;49.806;18.774;2022-08-19T01:18:46;9.88;;;6.43;;
41043;SDS011;51680;49.806;18.774;2022-08-19T01:21:52;13.13;;;6.70;;
41043;SDS011;51680;49.806;18.774;2022-08-19T01:25:00;9.30;;;6.60;;
41043;SDS011;51680;49.806;18.774;2022-08-19T01:28:02;10.40;;;6.68;;
41043;SDS011;51680;49.806;18.774;2022-08-19T01:31:05;11.23;;;6.05;;
41043;SDS011;51680;49.806;18.774;2022-08-19T01:34:07;13.30;;;6.60;;
41043;SDS011;51680;49.806;18.774;2022-08-19T01:37:11;9.70;;;6.40;;
41043;SDS011;51680;49.806;18.774;2022-08-19T01:40:14;11.73;;;6.10;;
41043;SDS011;51680;49.806;18.774;2022-08-19T01:43:16;10.52;;;5.97;;
41043;SDS011;51680;49.806;18.774;2022-08-19T01:46:19;11.18;;;6.28;;
41043;SDS011;51680;49.806;18.774;2022-08-19T01:49:21;9.02;;;6.70;;
41043;SDS011;51680;49.806;18.774;2022-08-19T01:52:26;10.60;;;6.03;;
41043;SDS011;51680;49.806;18.774;2022-08-19T01:55:30;9.07;;;6.38;;
41043;SDS011;51680;49.806;18.774;2022-08-19T01:58:33;8.82;;;6.03;;
41043;SDS011;51680;49.806;18.774;2022-08-19T02:01:38;10.77;;;6.25;;
41043;SDS011;51680;49.806;18.774;2022-08-19T02:04:40;10.38;;;5.57;;
41043;SDS011;51680;49.806;18.774;2022-08-19T02:07:42;11.77;;;6.07;;
41043;SDS011;51680;49.806;18.774;2022-08-19T02:10:46;11.73;;;5.78;;
41043;SDS011;51680;49.806;18.774;2022-08-19T02:13:48;13.05;;;6.28;;
41043;SDS011;51680;49.806;18.774;2022-08-19T02:16:50;9.52;;;5.50;;
41043;SDS011;51680;49.806;18.774;2022-08-19T02:19:52;9.52;;;6.20;;
41043;SDS011;51680;49.806;18.774;2022-08-19T02:22:54;11.15;;;6.22;;
41043;SDS011;51680;49.806;18.774;2022-08-19T02:25:57;8.02;;;6.07;;
41043;SDS011;51680;49.806;18.774;2022-08-19T02:28:59;7.90;;;6.07;;
41043;SDS011;51680;49.806;18.774;2022-08-19T02:32:00;11.27;;;5.68;;
41043;SDS011;51680;49.806;18.774;2022-08-19T02:35:02;10.85;;;5.45;;
41043;SDS011;51680;49.806;18.774;2022-08-19T02:38:05;9.88;;;5.45;;
41043;SDS011;51680;49.806;18.774;2022-08-19T02:41:25;8.50;;;5.30;;
41043;SDS011;51680;49.806;18.774;2022-08-19T02:44:29;9.65;;;5.50;;
41043;SDS011;51680;49.806;18.774;2022-08-19T02:47:30;8.52;;;5.95;;
41043;SDS011;51680;49.806;18.774;2022-08-19T02:50:32;11.52;;;6.07;;
41043;SDS011;51680;49.806;18.774;2022-08-19T02:53:34;8.70;;;6.18;;
41043;SDS011;51680;49.806;18.774;2022-08-19T02:56:38;12.02;;;5.45;;
41043;SDS011;51680;49.806;18.774;2022-08-19T02:59:41;12.65;;;5.88;;
41043;SDS011;51680;49.806;18.774;2022-08-19T03:02:43;9.85;;;5.35;;
41043;SDS011;51680;49.806;18.774;2022-08-19T03:05:46;7.33;;;5.13;;
41043;SDS011;51680;49.806;18.774;2022-08-19T03:08:48;11.65;;;5.82;;
41043;SDS011;51680;49.806;18.774;2022-08-19T03:11:52;9.25;;;4.80;;
41043;SDS011;51680;49.806;18.774;2022-08-19T03:14:53;14.27;;;5.45;;
41043;SDS011;51680;49.806;18.774;2022-08-19T03:17:56;9.85;;;5.15;;
41043;SDS011;51680;49.806;18.774;2022-08-19T03:20:57;9.07;;;5.32;;
41043;SDS011;51680;49.806;18.774;2022-08-19T03:24:00;9.98;;;5.47;;
41043;SDS011;51680;49.806;18.774;2022-08-19T03:27:06;8.93;;;5.40;;
41043;SDS011;51680;49.806;18.774;2022-08-19T03:30:08;10.60;;;5.75;;
41043;SDS011;51680;49.806;18.774;2022-08-19T03:33:11;7.10;;;5.38;;
41043;SDS011;51680;49.806;18.774;2022-08-19T03:36:14;9.80;;;5.18;;
41043;SDS011;51680;49.806;18.774;2022-08-19T03:39:18;10.95;;;5.45;;
41043;SDS011;51680;49.806;18.774;2022-08-19T03:42:21;10.25;;;5.72;;
41043;SDS011;51680;49.806;18.774;2022-08-19T03:45:22;10.63;;;5.77;;
41043;SDS011;51680;49.806;18.774;2022-08-19T03:48:24;10.45;;;5.13;;
41043;SDS011;51680;49.806;18.774;2022-08-19T03:51:27;9.45;;;5.38;;
41043;SDS011;51680;49.806;18.774;2022-08-19T03:54:31;8.77;;;5.60;;
41043;SDS011;51680;49.806;18.774;2022-08-19T03:57:35;9.80;;;5.82;;
41043;SDS011;51680;49.806;18.774;2022-08-19T04:00:36;8.85;;;5.47;;
41043;SDS011;51680;49.806;18.774;2022-08-19T04:03:38;12.18;;;5.32;;
41043;SDS011;51680;49.806;18.774;2022-08-19T04:06:41;10.93;;;5.70;;
41043;SDS011;51680;49.806;18.774;2022-08-19T04:09:47;10.32;;;5.63;;
41043;SDS011;51680;49.806;18.774;2022-08-19T04:12:50;11.15;;;5.70;;
41043;SDS011;51680;49.806;18.774;2022-08-19T04:15:52;10.73;;;5.65;;
41043;SDS011;51680;49.806;18.774;2022-08-19T04:18:54;9.13;;;5.55;;
41043;SDS011;51680;49.806;18.774;2022-08-19T04:21:57;8.27;;;5.78;;
41043;SDS011;51680;49.806;18.774;2022-08-19T04:24:59;11.30;;;5.55;;
41043;SDS011;51680;49.806;18.774;2022-08-19T04:28:02;8.85;;;5.55;;
41043;SDS011;51680;49.806;18.774;2022-08-19T04:31:04;11.35;;;5.57;;
41043;SDS011;51680;49.806;18.774;2022-08-19T04:34:06;8.95;;;5.50;;
41043;SDS011;51680;49.806;18.774;2022-08-19T04:37:11;10.85;;;5.45;;
41043;SDS011;51680;49.806;18.774;2022-08-19T04:40:14;10.57;;;5.77;;
41043;SDS011;51680;49.806;18.774;2022-08-19T04:43:36;12.57;;;5.57;;
41043;SDS011;51680;49.806;18.774;2022-08-19T04:46:38;10.73;;;5.65;;
41043;SDS011;51680;49.806;18.774;2022-08-19T04:49:40;11.57;;;5.70;;
41043;SDS011;51680;49.806;18.774;2022-08-19T04:52:42;10.57;;;5.47;;
41043;SDS011;51680;49.806;18.774;2022-08-19T04:55:44;10.27;;;5.68;;
41043;SDS011;51680;49.806;18.774;2022-08-19T04:58:47;11.43;;;5.15;;
41043;SDS011;51680;49.806;18.774;2022-08-19T05:01:50;8.88;;;5.82;;
41043;SDS011;51680;49.806;18.774;2022-08-19T05:04:56;8.65;;;5.30;;
41043;SDS011;51680;49.806;18.774;2022-08-19T05:07:59;11.13;;;5.72;;
41043;SDS011;51680;49.806;18.774;2022-08-19T05:11:20;9.20;;;5.65;;
41043;SDS011;51680;49.806;18.774;2022-08-19T05:14:25;7.45;;;5.32;;
41043;SDS011;51680;49.806;18.774;2022-08-19T05:17:27;11.03;;;5.30;;
41043;SDS011;51680;49.806;18.774;2022-08-19T05:20:29;8.73;;;5.47;;
41043;SDS011;51680;49.806;18.774;2022-08-19T05:23:48;12.77;;;5.07;;
41043;SDS011;51680;49.806;18.774;2022-08-19T05:26:50;14.00;;;5.95;;
41043;SDS011;51680;49.806;18.774;2022-08-19T05:29:54;11.95;;;5.32;;
41043;SDS011;51680;49.806;18.774;2022-08-19T05:32:56;10.88;;;5.40;;
41043;SDS011;51680;49.806;18.774;2022-08-19T05:35:58;9.02;;;5.05;;
41043;SDS011;51680;49.806;18.774;2022-08-19T05:39:00;10.73;;;5.70;;
41043;SDS011;51680;49.806;18.774;2022-08-19T05:42:02;10.25;;;5.38;;
41043;SDS011;51680;49.806;18.774;2022-08-19T05:45:09;10.10;;;5.70;;
41043;SDS011;51680;49.806;18.774;2022-08-19T05:48:11;9.57;;;5.18;;
41043;SDS011;51680;49.806;18.774;2022-08-19T05:51:13;14.15;;;6.05;;
41043;SDS011;51680;49.806;18.774;2022-08-19T05:54:17;12.25;;;6.40;;
41043;SDS011;51680;49.806;18.774;2022-08-19T05:57:20;11.45;;;6.72;;
41043;SDS011;51680;49.806;18.774;2022-08-19T06:00:23;12.80;;;6.95;;
41043;SDS011;51680;49.806;18.774;2022-08-19T06:03:25;10.48;;;6.32;;
41043;SDS011;51680;49.806;18.774;2022-08-19T06:06:28;12.32;;;6.20;;
41043;SDS011;51680;49.806;18.774;2022-08-19T06:09:30;13.95;;;5.95;;
41043;SDS011;51680;49.806;18.774;2022-08-19T06:12:32;14.02;;;5.78;;
41043;SDS011;51680;49.806;18.774;2022-08-19T06:15:35;9.35;;;5.90;;
41043;SDS011;51680;49.806;18.774;2022-08-19T06:18:37;12.02;;;5.82;;
41043;SDS011;51680;49.806;18.774;2022-08-19T06:21:39;12.40;;;6.20;;
41043;SDS011;51680;49.806;18.774;2022-08-19T06:24:43;12.30;;;6.40;;
41043;SDS011;51680;49.806;18.774;2022-08-19T06:27:45;17.80;;;5.68;;
41043;SDS011;51680;49.806;18.774;2022-08-19T06:30:49;13.38;;;5.93;;
41043;SDS011;51680;49.806;18.774;2022-08-19T06:36:53;11.05;;;5.53;;
41043;SDS011;51680;49.806;18.774;2022-08-19T06:39:56;12.65;;;6.07;;
41043;SDS011;51680;49.806;18.774;2022-08-19T06:42:58;13.82;;;6.10;;
41043;SDS011;51680;49.806;18.774;2022-08-19T06:46:03;12.32;;;5.90;;
41043;SDS011;51680;49.806;18.774;2022-08-19T06:49:11;7.57;;;5.43;;
41043;SDS011;51680;49.806;18.774;2022-08-19T06:52:14;9.73;;;5.57;;
41043;SDS011;51680;49.806;18.774;2022-08-19T06:55:16;9.68;;;5.38;;
41043;SDS011;51680;49.806;18.774;2022-08-19T06:58:18;9.88;;;5.40;;
41043;SDS011;51680;49.806;18.774;2022-08-19T07:01:21;10.55;;;5.20;;
41043;SDS011;51680;49.806;18.774;2022-08-19T07:04:23;9.20;;;4.53;;
41043;SDS011;51680;49.806;18.774;2022-08-19T07:07:26;9.25;;;5.22;;
41043;SDS011;51680;49.806;18.774;2022-08-19T07:10:28;9.85;;;5.60;;
41043;SDS011;51680;49.806;18.774;2022-08-19T07:13:32;9.63;;;4.85;;
41043;SDS011;51680;49.806;18.774;2022-08-19T07:16:38;9.60;;;5.35;;
41043;SDS011;51680;49.806;18.774;2022-08-19T07:19:40;9.00;;;5.30;;
41043;SDS011;51680;49.806;18.774;2022-08-19T07:22:42;8.40;;;5.10;;
41043;SDS011;51680;49.806;18.774;2022-08-19T07:25:44;11.32;;;5.60;;
41043;SDS011;51680;49.806;18.774;2022-08-19T07:28:47;10.52;;;5.13;;
41043;SDS011;51680;49.806;18.774;2022-08-19T07:31:51;9.93;;;5.20;;
41043;SDS011;51680;49.806;18.774;2022-08-19T07:34:56;9.45;;;5.50;;
41043;SDS011;51680;49.806;18.774;2022-08-19T07:37:58;8.05;;;4.88;;
41043;SDS011;51680;49.806;18.774;2022-08-19T07:41:03;9.93;;;5.55;;
41043;SDS011;51680;49.806;18.774;2022-08-19T07:44:06;8.13;;;5.15;;
41043;SDS011;51680;49.806;18.774;2022-08-19T07:47:10;11.30;;;5.40;;
41043;SDS011;51680;49.806;18.774;2022-08-19T07:50:16;10.52;;;5.15;;
41043;SDS011;51680;49.806;18.774;2022-08-19T07:53:20;13.05;;;5.88;;
41043;SDS011;51680;49.806;18.774;2022-08-19T07:56:22;8.38;;;5.43;;
41043;SDS011;51680;49.806;18.774;2022-08-19T07:59:24;9.30;;;5.60;;
41043;SDS011;51680;49.806;18.774;2022-08-19T08:02:27;12.48;;;5.15;;
41043;SDS011;51680;49.806;18.774;2022-08-19T08:05:48;11.93;;;5.40;;
41043;SDS011;51680;49.806;18.774;2022-08-19T08:09:08;12.60;;;5.32;;
41043;SDS011;51680;49.806;18.774;2022-08-19T08:12:18;12.13;;;5.45;;
41043;SDS011;51680;49.806;18.774;2022-08-19T08:15:24;10.30;;;5.05;;
41043;SDS011;51680;49.806;18.774;2022-08-19T08:18:27;11.48;;;5.20;;
41043;SDS011;51680;49.806;18.774;2022-08-19T08:21:30;12.98;;;5.57;;
41043;SDS011;51680;49.806;18.774;2022-08-19T08:24:32;8.15;;;5.40;;
41043;SDS011;51680;49.806;18.774;2022-08-19T08:27:36;9.90;;;5.55;;
41043;SDS011;51680;49.806;18.774;2022-08-19T08:33:43;13.10;;;5.15;;
41043;SDS011;51680;49.806;18.774;2022-08-19T08:36:46;9.73;;;5.07;;
41043;SDS011;51680;49.806;18.774;2022-08-19T08:39:48;12.85;;;5.32;;
41043;SDS011;51680;49.806;18.774;2022-08-19T08:42:51;12.50;;;5.43;;
41043;SDS011;51680;49.806;18.774;2022-08-19T08:46:02;10.77;;;5.53;;
41043;SDS011;51680;49.806;18.774;2022-08-19T08:49:13;8.48;;;4.72;;
41043;SDS011;51680;49.806;18.774;2022-08-19T08:52:29;10.18;;;5.70;;
41043;SDS011;51680;49.806;18.774;2022-08-19T08:55:34;10.32;;;6.03;;
41043;SDS011;51680;49.806;18.774;2022-08-19T08:58:39;8.93;;;5.50;;
41043;SDS011;51680;49.806;18.774;2022-08-19T09:01:46;11.40;;;5.90;;
41043;SDS011;51680;49.806;18.774;2022-08-19T09:04:49;13.90;;;5.50;;
41043;SDS011;51680;49.806;18.774;2022-08-19T09:07:53;10.77;;;6.13;;
41043;SDS011;51680;49.806;18.774;2022-08-19T09:11:03;9.98;;;5.88;;
41043;SDS011;51680;49.806;18.774;2022-08-19T09:14:10;12.32;;;6.05;;
41043;SDS011;51680;49.806;18.774;2022-08-19T09:17:22;11.15;;;6.40;;
41043;SDS011;51680;49.806;18.774;2022-08-19T09:20:29;9.10;;;5.47;;
41043;SDS011;51680;49.806;18.774;2022-08-19T09:23:32;9.80;;;5.60;;
41043;SDS011;51680;49.806;18.774;2022-08-19T09:26:34;13.27;;;6.50;;
41043;SDS011;51680;49.806;18.774;2022-08-19T09:29:36;7.15;;;5.15;;
41043;SDS011;51680;49.806;18.774;2022-08-19T09:32:37;12.82;;;6.93;;
41043;SDS011;51680;49.806;18.774;2022-08-19T09:35:43;11.10;;;6.75;;
41043;SDS011;51680;49.806;18.774;2022-08-19T09:38:46;11.77;;;6.20;;
41043;SDS011;51680;49.806;18.774;2022-08-19T09:41:48;12.77;;;6.15;;
41043;SDS011;51680;49.806;18.774;2022-08-19T09:44:50;11.63;;;6.65;;
41043;SDS011;51680;49.806;18.774;2022-08-19T09:47:51;11.20;;;6.70;;
41043;SDS011;51680;49.806;18.774;2022-08-19T09:50:55;9.80;;;6.35;;
41043;SDS011;51680;49.806;18.774;2022-08-19T09:54:04;11.45;;;6.03;;
41043;SDS011;51680;49.806;18.774;2022-08-19T09:57:06;11.73;;;6.13;;
41043;SDS011;51680;49.806;18.774;2022-08-19T10:00:08;9.25;;;6.32;;
41043;SDS011;51680;49.806;18.774;2022-08-19T10:03:10;9.50;;;5.57;;
41043;SDS011;51680;49.806;18.774;2022-08-19T10:06:14;10.80;;;5.50;;
41043;SDS011;51680;49.806;18.774;2022-08-19T10:12:18;9.73;;;4.97;;
41043;SDS011;51680;49.806;18.774;2022-08-19T10:15:20;8.43;;;4.97;;
41043;SDS011;51680;49.806;18.774;2022-08-19T10:18:22;7.70;;;4.63;;
41043;SDS011;51680;49.806;18.774;2022-08-19T10:21:28;9.98;;;5.22;;
41043;SDS011;51680;49.806;18.774;2022-08-19T10:24:31;15.15;;;5.35;;
41043;SDS011;51680;49.806;18.774;2022-08-19T10:27:33;8.27;;;4.80;;
41043;SDS011;51680;49.806;18.774;2022-08-19T10:30:35;11.00;;;5.25;;
41043;SDS011;51680;49.806;18.774;2022-08-19T10:33:37;10.85;;;5.43;;
41043;SDS011;51680;49.806;18.774;2022-08-19T10:36:41;11.87;;;5.73;;
41043;SDS011;51680;49.806;18.774;2022-08-19T10:39:43;8.45;;;5.55;;
41043;SDS011;51680;49.806;18.774;2022-08-19T10:42:47;10.95;;;5.07;;
41043;SDS011;51680;49.806;18.774;2022-08-19T10:45:51;11.52;;;5.53;;
41043;SDS011;51680;49.806;18.774;2022-08-19T10:48:56;12.13;;;5.57;;
41043;SDS011;51680;49.806;18.774;2022-08-19T10:51:59;10.88;;;6.40;;
41043;SDS011;51680;49.806;18.774;2022-08-19T10:55:19;10.57;;;6.35;;
41043;SDS011;51680;49.806;18.774;2022-08-19T10:58:40;11.13;;;6.05;;
41043;SDS011;51680;49.806;18.774;2022-08-19T11:01:43;8.70;;;5.78;;
41043;SDS011;51680;49.806;18.774;2022-08-19T11:04:46;10.48;;;4.97;;
41043;SDS011;51680;49.806;18.774;2022-08-19T11:07:51;6.35;;;5.03;;
41043;SDS011;51680;49.806;18.774;2022-08-19T11:10:53;17.52;;;5.50;;
41043;SDS011;51680;49.806;18.774;2022-08-19T11:13:57;13.75;;;5.53;;
41043;SDS011;51680;49.806;18.774;2022-08-19T11:17:00;10.80;;;5.40;;
41043;SDS011;51680;49.806;18.774;2022-08-19T11:20:02;10.75;;;5.93;;
41043;SDS011;51680;49.806;18.774;2022-08-19T11:23:07;12.40;;;5.47;;
41043;SDS011;51680;49.806;18.774;2022-08-19T11:26:09;11.38;;;5.57;;
41043;SDS011;51680;49.806;18.774;2022-08-19T11:29:11;13.48;;;6.35;;
41043;SDS011;51680;49.806;18.774;2022-08-19T11:32:14;13.20;;;6.68;;
41043;SDS011;51680;49.806;18.774;2022-08-19T11:35:16;7.63;;;5.47;;
41043;SDS011;51680;49.806;18.774;2022-08-19T11:38:21;11.05;;;6.57;;
41043;SDS011;51680;49.806;18.774;2022-08-19T11:41:23;14.40;;;6.18;;
41043;SDS011;51680;49.806;18.774;2022-08-19T11:44:25;13.35;;;6.28;;
41043;SDS011;51680;49.806;18.774;2022-08-19T11:47:30;17.35;;;6.30;;
41043;SDS011;51680;49.806;18.774;2022-08-19T11:50:33;13.83;;;6.07;;
41043;SDS011;51680;49.806;18.774;2022-08-19T11:53:36;11.05;;;5.55;;
41043;SDS011;51680;49.806;18.774;2022-08-19T11:56:39;10.07;;;5.55;;
41043;SDS011;51680;49.806;18.774;2022-08-19T11:59:42;9.00;;;5.53;;
41043;SDS011;51680;49.806;18.774;2022-08-19T12:02:48;10.70;;;5.82;;
41043;SDS011;51680;49.806;18.774;2022-08-19T12:05:50;8.93;;;6.05;;
41043;SDS011;51680;49.806;18.774;2022-08-19T12:08:53;14.05;;;5.47;;
41043;SDS011;51680;49.806;18.774;2022-08-19T12:11:55;11.88;;;5.60;;
41043;SDS011;51680;49.806;18.774;2022-08-19T12:14:57;13.38;;;5.28;;
41043;SDS011;51680;49.806;18.774;2022-08-19T12:17:59;11.75;;;6.15;;
41043;SDS011;51680;49.806;18.774;2022-08-19T12:21:01;16.17;;;5.60;;
41043;SDS011;51680;49.806;18.774;2022-08-19T12:24:05;8.35;;;5.60;;
41043;SDS011;51680;49.806;18.774;2022-08-19T12:27:08;11.27;;;5.30;;
41043;SDS011;51680;49.806;18.774;2022-08-19T12:30:10;10.43;;;5.53;;
41043;SDS011;51680;49.806;18.774;2022-08-19T12:33:14;10.02;;;6.07;;
41043;SDS011;51680;49.806;18.774;2022-08-19T12:36:16;7.97;;;5.35;;
41043;SDS011;51680;49.806;18.774;2022-08-19T12:39:20;15.60;;;5.87;;
41043;SDS011;51680;49.806;18.774;2022-08-19T12:42:21;11.10;;;5.88;;
41043;SDS011;51680;49.806;18.774;2022-08-19T12:45:23;10.52;;;5.90;;
41043;SDS011;51680;49.806;18.774;2022-08-19T12:48:25;15.85;;;6.70;;
41043;SDS011;51680;49.806;18.774;2022-08-19T12:51:27;15.35;;;5.72;;
41043;SDS011;51680;49.806;18.774;2022-08-19T12:54:33;11.20;;;4.60;;
41043;SDS011;51680;49.806;18.774;2022-08-19T12:57:34;7.47;;;4.75;;
41043;SDS011;51680;49.806;18.774;2022-08-19T13:00:36;12.93;;;5.20;;
41043;SDS011;51680;49.806;18.774;2022-08-19T13:03:38;12.90;;;5.00;;
41043;SDS011;51680;49.806;18.774;2022-08-19T13:06:40;8.73;;;4.63;;
41043;SDS011;51680;49.806;18.774;2022-08-19T13:09:44;13.40;;;4.70;;
41043;SDS011;51680;49.806;18.774;2022-08-19T13:12:46;14.45;;;5.03;;
41043;SDS011;51680;49.806;18.774;2022-08-19T13:15:50;12.68;;;4.88;;
41043;SDS011;51680;49.806;18.774;2022-08-19T13:18:51;12.80;;;4.57;;
41043;SDS011;51680;49.806;18.774;2022-08-19T13:21:53;10.80;;;4.82;;
41043;SDS011;51680;49.806;18.774;2022-08-19T13:24:57;13.10;;;4.75;;
41043;SDS011;51680;49.806;18.774;2022-08-19T13:27:59;15.57;;;4.82;;
41043;SDS011;51680;49.806;18.774;2022-08-19T13:31:01;9.00;;;4.57;;
41043;SDS011;51680;49.806;18.774;2022-08-19T13:34:25;10.35;;;4.68;;
41043;SDS011;51680;49.806;18.774;2022-08-19T13:37:31;17.05;;;5.00;;
41043;SDS011;51680;49.806;18.774;2022-08-19T13:40:47;9.60;;;4.43;;
41043;SDS011;51680;49.806;18.774;2022-08-19T13:43:50;7.85;;;4.55;;
41043;SDS011;51680;49.806;18.774;2022-08-19T13:46:52;9.98;;;4.75;;
41043;SDS011;51680;49.806;18.774;2022-08-19T13:49:54;13.68;;;5.70;;
41043;SDS011;51680;49.806;18.774;2022-08-19T13:52:56;17.33;;;6.57;;
41043;SDS011;51680;49.806;18.774;2022-08-19T13:55:59;15.13;;;5.65;;
41043;SDS011;51680;49.806;18.774;2022-08-19T13:59:01;13.05;;;5.60;;
41043;SDS011;51680;49.806;18.774;2022-08-19T14:02:03;12.20;;;5.60;;
41043;SDS011;51680;49.806;18.774;2022-08-19T14:05:05;12.98;;;6.10;;
41043;SDS011;51680;49.806;18.774;2022-08-19T14:08:09;12.90;;;6.07;;
41043;SDS011;51680;49.806;18.774;2022-08-19T14:11:15;12.52;;;6.50;;
41043;SDS011;51680;49.806;18.774;2022-08-19T14:14:17;14.27;;;5.82;;
41043;SDS011;51680;49.806;18.774;2022-08-19T14:17:19;12.07;;;5.70;;
41043;SDS011;51680;49.806;18.774;2022-08-19T14:20:21;12.95;;;5.35;;
41043;SDS011;51680;49.806;18.774;2022-08-19T14:23:23;10.63;;;5.82;;
41043;SDS011;51680;49.806;18.774;2022-08-19T14:26:27;13.98;;;5.53;;
41043;SDS011;51680;49.806;18.774;2022-08-19T14:29:28;12.95;;;5.60;;
41043;SDS011;51680;49.806;18.774;2022-08-19T14:32:30;10.95;;;5.18;;
41043;SDS011;51680;49.806;18.774;2022-08-19T14:35:32;13.38;;;6.20;;
41043;SDS011;51680;49.806;18.774;2022-08-19T14:38:35;11.10;;;5.43;;
41043;SDS011;51680;49.806;18.774;2022-08-19T14:41:39;17.02;;;5.85;;
41043;SDS011;51680;49.806;18.774;2022-08-19T14:44:41;14.98;;;5.90;;
41043;SDS011;51680;49.806;18.774;2022-08-19T14:47:44;17.38;;;6.25;;
41043;SDS011;51680;49.806;18.774;2022-08-19T14:50:45;12.15;;;5.05;;
41043;SDS011;51680;49.806;18.774;2022-08-19T14:53:47;11.23;;;5.53;;
41043;SDS011;51680;49.806;18.774;2022-08-19T14:56:51;11.80;;;5.60;;
41043;SDS011;51680;49.806;18.774;2022-08-19T14:59:53;14.80;;;5.75;;
41043;SDS011;51680;49.806;18.774;2022-08-19T15:02:55;10.68;;;5.55;;
41043;SDS011;51680;49.806;18.774;2022-08-19T15:05:57;13.38;;;5.50;;
41043;SDS011;51680;49.806;18.774;2022-08-19T15:09:00;15.88;;;5.80;;
41043;SDS011;51680;49.806;18.774;2022-08-19T15:12:04;16.33;;;5.90;;
41043;SDS011;51680;49.806;18.774;2022-08-19T15:15:07;11.93;;;6.07;;
41043;SDS011;51680;49.806;18.774;2022-08-19T15:18:12;14.85;;;6.60;;
41043;SDS011;51680;49.806;18.774;2022-08-19T15:21:14;11.25;;;5.65;;
41043;SDS011;51680;49.806;18.774;2022-08-19T15:24:17;15.10;;;5.72;;
41043;SDS011;51680;49.806;18.774;2022-08-19T15:27:21;17.13;;;5.97;;
41043;SDS011;51680;49.806;18.774;2022-08-19T15:30:24;21.48;;;6.13;;
41043;SDS011;51680;49.806;18.774;2022-08-19T15:33:29;18.05;;;6.30;;
41043;SDS011;51680;49.806;18.774;2022-08-19T15:36:32;17.00;;;5.78;;
41043;SDS011;51680;49.806;18.774;2022-08-19T15:39:35;9.33;;;5.47;;
41043;SDS011;51680;49.806;18.774;2022-08-19T15:42:38;12.98;;;5.90;;
41043;SDS011;51680;49.806;18.774;2022-08-19T15:45:41;16.90;;;6.57;;
41043;SDS011;51680;49.806;18.774;2022-08-19T15:48:44;14.52;;;6.40;;
41043;SDS011;51680;49.806;18.774;2022-08-19T15:51:47;19.23;;;6.35;;
41043;SDS011;51680;49.806;18.774;2022-08-19T15:54:51;18.02;;;5.93;;
41043;SDS011;51680;49.806;18.774;2022-08-19T15:57:54;13.77;;;6.88;;
41043;SDS011;51680;49.806;18.774;2022-08-19T16:01:13;11.55;;;5.68;;
41043;SDS011;51680;49.806;18.774;2022-08-19T16:04:35;8.57;;;4.60;;
41043;SDS011;51680;49.806;18.774;2022-08-19T16:07:54;16.65;;;5.47;;
41043;SDS011;51680;49.806;18.774;2022-08-19T16:10:56;15.90;;;6.05;;
41043;SDS011;51680;49.806;18.774;2022-08-19T16:13:59;18.13;;;5.90;;
41043;SDS011;51680;49.806;18.774;2022-08-19T16:17:01;11.80;;;5.75;;
41043;SDS011;51680;49.806;18.774;2022-08-19T16:20:04;19.67;;;5.60;;
41043;SDS011;51680;49.806;18.774;2022-08-19T16:23:08;16.67;;;5.72;;
41043;SDS011;51680;49.806;18.774;2022-08-19T16:26:10;15.18;;;5.60;;
41043;SDS011;51680;49.806;18.774;2022-08-19T16:29:14;20.75;;;6.13;;
41043;SDS011;51680;49.806;18.774;2022-08-19T16:32:17;23.25;;;5.97;;
41043;SDS011;51680;49.806;18.774;2022-08-19T16:35:19;17.63;;;5.78;;
41043;SDS011;51680;49.806;18.774;2022-08-19T16:38:21;19.63;;;6.22;;
41043;SDS011;51680;49.806;18.774;2022-08-19T16:41:23;20.98;;;7.57;;
41043;SDS011;51680;49.806;18.774;2022-08-19T16:44:28;25.10;;;7.68;;
41043;SDS011;51680;49.806;18.774;2022-08-19T16:47:29;16.20;;;5.57;;
41043;SDS011;51680;49.806;18.774;2022-08-19T16:50:31;22.17;;;6.15;;
41043;SDS011;51680;49.806;18.774;2022-08-19T16:53:33;24.00;;;5.78;;
41043;SDS011;51680;49.806;18.774;2022-08-19T16:56:36;17.00;;;5.82;;
41043;SDS011;51680;49.806;18.774;2022-08-19T16:59:39;17.95;;;5.00;;
41043;SDS011;51680;49.806;18.774;2022-08-19T17:02:42;16.17;;;5.03;;
41043;SDS011;51680;49.806;18.774;2022-08-19T17:05:45;11.65;;;5.40;;
41043;SDS011;51680;49.806;18.774;2022-08-19T17:08:49;16.00;;;5.57;;
41043;SDS011;51680;49.806;18.774;2022-08-19T17:11:54;13.77;;;5.90;;
41043;SDS011;51680;49.806;18.774;2022-08-19T17:14:57;15.15;;;6.10;;
41043;SDS011;51680;49.806;18.774;2022-08-19T17:18:00;14.63;;;5.57;;
41043;SDS011;51680;49.806;18.774;2022-08-19T17:21:03;15.90;;;5.90;;
41043;SDS011;51680;49.806;18.774;2022-08-19T17:24:05;14.23;;;5.43;;
41043;SDS011;51680;49.806;18.774;2022-08-19T17:27:08;10.55;;;5.22;;
41043;SDS011;51680;49.806;18.774;2022-08-19T17:30:12;12.07;;;5.43;;
41043;SDS011;51680;49.806;18.774;2022-08-19T17:33:13;18.02;;;5.13;;
41043;SDS011;51680;49.806;18.774;2022-08-19T17:36:15;17.10;;;6.00;;
41043;SDS011;51680;49.806;18.774;2022-08-19T17:39:18;12.32;;;5.25;;
41043;SDS011;51680;49.806;18.774;2022-08-19T17:42:19;14.80;;;5.55;;
41043;SDS011;51680;49.806;18.774;2022-08-19T17:45:23;19.50;;;5.75;;
41043;SDS011;51680;49.806;18.774;2022-08-19T17:48:25;15.80;;;5.93;;
41043;SDS011;51680;49.806;18.774;2022-08-19T17:51:37;22.75;;;6.13;;
41043;SDS011;51680;49.806;18.774;2022-08-19T17:54:41;19.58;;;6.03;;
41043;SDS011;51680;49.806;18.774;2022-08-19T17:57:42;25.55;;;6.22;;
41043;SDS011;51680;49.806;18.774;2022-08-19T18:00:46;20.60;;;6.20;;
41043;SDS011;51680;49.806;18.774;2022-08-19T18:03:48;19.20;;;6.10;;
41043;SDS011;51680;49.806;18.774;2022-08-19T18:06:50;16.02;;;6.15;;
41043;SDS011;51680;49.806;18.774;2022-08-19T18:09:51;18.38;;;6.45;;
41043;SDS011;51680;49.806;18.774;2022-08-19T18:12:54;16.00;;;5.68;;